Time;durP1;ratioP1;P1;durP2;ratioP2;P2;SDS_P1;SDS_P2;PMS_P1;PMS_P2;Temp;Humidity;BMP_temperature;BMP_pressure;BME280_temperature;BME280_humidity;BME280_pressure;Samples;Min_cycle;Max_cycle;Signal;HPM_P1;HPM_P2
2023/03/12 00:02:23;;;;;;;;;;;17.10;62.00;;;;;;5036886;28;1345;-71
2023/03/12 00:04:49;;;;;;;;;;;17.10;62.00;;;;;;5041996;28;887;-71
2023/03/12 00:07:14;;;;;;;;;;;17.10;62.00;;;;;;5040249;28;887;-70
2023/03/12 00:09:39;;;;;;;;;;;17.10;62.00;;;;;;5040520;28;1898;-71
2023/03/12 00:12:05;;;;;;;;;;;17.10;62.00;;;;;;5039864;28;1371;-71
2023/03/12 00:14:31;;;;;;;;;;;17.10;62.00;;;;;;5044272;28;1185;-71
2023/03/12 00:16:56;;;;;;;;;;;17.10;62.10;;;;;;5041605;28;908;-71
2023/03/12 00:19:22;;;;;;;;;;;17.10;62.00;;;;;;5040805;28;848;-71
2023/03/12 00:21:47;;;;;;;;;;;17.10;62.00;;;;;;5040979;28;845;-71
2023/03/12 00:24:13;;;;;;;;;;;17.10;62.00;;;;;;5039112;28;1272;-71
2023/03/12 00:26:38;;;;;;;;;;;17.10;62.00;;;;;;5036281;28;1081;-71
2023/03/12 00:29:04;;;;;;;;;;;17.10;62.70;;;;;;5042674;28;847;-70
2023/03/12 00:31:31;;;;;;;;;;;17.10;62.00;;;;;;5039412;28;1907;-70
2023/03/12 00:33:56;;;;;;;;;;;17.10;62.00;;;;;;5047764;28;1316;-70
2023/03/12 00:36:23;;;;;;;;;;;17.10;62.00;;;;;;5032112;28;896;-73
2023/03/12 00:38:49;;;;;;;;;;;17.10;62.00;;;;;;5074465;28;1204;-71
2023/03/12 00:41:15;;;;;;;;;;;17.10;62.00;;;;;;5044908;28;1200;-72
2023/03/12 00:43:40;;;;;;;;;;;17.10;62.00;;;;;;5036981;28;1762;-71
2023/03/12 00:46:06;;;;;;;;;;;17.10;62.10;;;;;;5036043;28;888;-71
2023/03/12 00:48:31;;;;;;;;;;;17.10;62.00;;;;;;5038207;28;939;-71
2023/03/12 00:50:57;;;;;;;;;;;17.10;62.00;;;;;;5041274;28;1902;-71
2023/03/12 00:53:22;;;;;;;;;;;17.10;62.00;;;;;;5039829;28;1247;-71
2023/03/12 00:55:48;;;;;;;;;;;17.10;62.00;;;;;;5033886;28;968;-71
2023/03/12 00:58:13;;;;;;;;;;;17.10;62.00;;;;;;5038700;28;907;-70
2023/03/12 01:00:38;;;;;;;;;;;17.10;62.00;;;;;;5071312;28;828;-70
2023/03/12 01:03:04;;;;;;;;;;;17.10;62.00;;;;;;5071153;28;1323;-70
2023/03/12 01:05:30;;;;;;;;;;;17.10;62.00;;;;;;5035834;28;910;-70
2023/03/12 01:07:56;;;;;;;;;;;17.10;62.00;;;;;;5040933;28;787;-70
2023/03/12 01:10:21;;;;;;;;;;;17.10;62.00;;;;;;5039234;28;1922;-70
2023/03/12 01:12:47;;;;;;;;;;;17.10;62.00;;;;;;5066506;28;1349;-71
2023/03/12 01:15:13;;;;;;;;;;;17.10;62.00;;;;;;5038841;28;898;-71
2023/03/12 01:17:38;;;;;;;;;;;17.10;62.00;;;;;;5072267;28;1044;-71
2023/03/12 01:20:04;;;;;;;;;;;17.10;62.00;;;;;;5039742;28;924;-70
2023/03/12 01:22:30;;;;;;;;;;;17.10;62.00;;;;;;5040357;28;1233;-71
2023/03/12 01:24:55;;;;;;;;;;;17.10;62.00;;;;;;5036478;28;1058;-70
2023/03/12 01:27:21;;;;;;;;;;;17.10;62.00;;;;;;5038669;28;845;-71
2023/03/12 01:29:46;;;;;;;;;;;17.10;62.00;;;;;;5038554;28;1959;-71
2023/03/12 01:32:12;;;;;;;;;;;17.10;62.00;;;;;;5035825;28;1281;-70
2023/03/12 01:34:37;;;;;;;;;;;17.10;62.00;;;;;;5069717;28;972;-70
2023/03/12 01:37:03;;;;;;;;;;;17.10;62.00;;;;;;5038114;28;1454;-70
2023/03/12 01:39:28;;;;;;;;;;;17.10;62.00;;;;;;5038976;28;834;-72
2023/03/12 01:41:54;;;;;;;;;;;17.10;62.00;;;;;;5039847;28;1256;-72
2023/03/12 01:44:19;;;;;;;;;;;17.10;62.00;;;;;;5039012;28;812;-71
2023/03/12 01:46:45;;;;;;;;;;;17.10;62.00;;;;;;5039652;28;792;-73
2023/03/12 01:49:10;;;;;;;;;;;17.10;62.00;;;;;;5042804;28;797;-73
2023/03/12 01:51:40;;;;;;;;;;;17.10;62.00;;;;;;5040486;28;1898;-73
2023/03/12 01:54:06;;;;;;;;;;;17.10;62.00;;;;;;5039518;28;1317;-73
2023/03/12 01:56:32;;;;;;;;;;;17.10;62.00;;;;;;5036413;28;809;-72
2023/03/12 01:58:59;;;;;;;;;;;17.10;62.00;;;;;;5040843;28;876;-72
2023/03/12 02:01:24;;;;;;;;;;;17.10;62.00;;;;;;5039952;28;883;-72
2023/03/12 02:03:50;;;;;;;;;;;17.10;62.00;;;;;;5036007;28;1304;-72
2023/03/12 02:06:16;;;;;;;;;;;17.10;62.00;;;;;;5055412;28;1222;-72
2023/03/12 02:08:42;;;;;;;;;;;17.10;62.00;;;;;;5035573;28;864;-73
2023/03/12 02:11:08;;;;;;;;;;;17.10;62.00;;;;;;5043674;28;1902;-73
2023/03/12 02:13:33;;;;;;;;;;;17.10;62.00;;;;;;5045498;28;1276;-72
2023/03/12 02:15:59;;;;;;;;;;;17.10;62.00;;;;;;5044693;28;923;-73
2023/03/12 02:18:25;;;;;;;;;;;17.10;62.00;;;;;;5039178;28;1293;-71
2023/03/12 02:21:09;;;;;;;;;;;17.10;61.90;;;;;;5070364;28;936;-71
2023/03/12 02:23:37;;;;;;;;;;;17.10;62.00;;;;;;5050758;28;1266;-71
2023/03/12 02:26:03;;;;;;;;;;;17.10;62.00;;;;;;5073091;28;828;-71
2023/03/12 02:28:28;;;;;;;;;;;17.10;62.00;;;;;;5035808;28;809;-71
2023/03/12 02:30:56;;;;;;;;;;;17.10;62.00;;;;;;5041277;28;1902;-71
2023/03/12 02:33:21;;;;;;;;;;;17.10;62.00;;;;;;5036011;28;1363;-71
2023/03/12 02:35:47;;;;;;;;;;;17.10;62.00;;;;;;5039881;28;935;-71
2023/03/12 02:38:31;;;;;;;;;;;17.10;62.00;;;;;;5071101;28;1366;-71
2023/03/12 02:40:57;;;;;;;;;;;17.10;62.00;;;;;;5036944;28;860;-71
2023/03/12 02:43:23;;;;;;;;;;;17.10;61.90;;;;;;5071919;28;1287;-71
2023/03/12 02:45:49;;;;;;;;;;;17.10;62.00;;;;;;5072413;28;989;-71
2023/03/12 02:48:14;;;;;;;;;;;17.10;62.00;;;;;;5046624;28;831;-70
2023/03/12 02:50:40;;;;;;;;;;;17.10;62.00;;;;;;5040305;28;1894;-71
2023/03/12 02:53:05;;;;;;;;;;;17.10;62.00;;;;;;5038553;28;1739;-71
2023/03/12 02:55:30;;;;;;;;;;;17.10;62.00;;;;;;5042592;28;843;-70
2023/03/12 02:57:56;;;;;;;;;;;17.10;62.00;;;;;;5038277;28;893;-70
2023/03/12 03:00:21;;;;;;;;;;;17.10;62.00;;;;;;5038174;28;1367;-70
2023/03/12 03:02:47;;;;;;;;;;;17.10;62.00;;;;;;5039792;28;1259;-70
2023/03/12 03:05:12;;;;;;;;;;;17.10;62.00;;;;;;5039254;28;872;-70
2023/03/12 03:07:38;;;;;;;;;;;17.10;62.00;;;;;;5041247;28;1092;-70
2023/03/12 03:10:04;;;;;;;;;;;17.10;62.00;;;;;;5041576;28;1937;-70
2023/03/12 03:12:30;;;;;;;;;;;17.10;62.00;;;;;;5041785;28;1263;-70
2023/03/12 03:14:55;;;;;;;;;;;17.10;62.00;;;;;;5044799;28;820;-72
2023/03/12 03:17:23;;;;;;;;;;;17.10;62.00;;;;;;5041239;28;879;-71
2023/03/12 03:19:49;;;;;;;;;;;17.10;62.10;;;;;;5048649;28;1384;-71
2023/03/12 03:22:14;;;;;;;;;;;17.00;62.00;;;;;;5043924;28;1381;-70
2023/03/12 03:24:39;;;;;;;;;;;17.10;62.00;;;;;;5041541;28;1015;-71
2023/03/12 03:27:05;;;;;;;;;;;17.10;62.00;;;;;;5042238;28;868;-72
2023/03/12 03:29:30;;;;;;;;;;;17.10;62.00;;;;;;5073136;28;970;-71
2023/03/12 03:31:56;;;;;;;;;;;17.10;62.00;;;;;;5041704;28;1898;-71
2023/03/12 03:34:21;;;;;;;;;;;17.10;62.00;;;;;;5047604;28;1311;-71
2023/03/12 03:36:47;;;;;;;;;;;17.10;62.00;;;;;;5043099;28;1466;-71
2023/03/12 03:39:12;;;;;;;;;;;17.10;62.00;;;;;;5041588;28;859;-71
2023/03/12 03:41:38;;;;;;;;;;;17.10;62.00;;;;;;5042675;28;804;-71
2023/03/12 03:44:04;;;;;;;;;;;17.10;62.00;;;;;;5075211;28;1290;-71
2023/03/12 03:46:29;;;;;;;;;;;17.10;62.00;;;;;;5042663;28;919;-71
2023/03/12 03:48:55;;;;;;;;;;;17.10;62.00;;;;;;5040165;28;1081;-71
2023/03/12 03:51:20;;;;;;;;;;;17.10;62.00;;;;;;5040493;28;1975;-71
2023/03/12 03:53:45;;;;;;;;;;;17.10;62.00;;;;;;5041413;28;1310;-71
2023/03/12 03:56:12;;;;;;;;;;;17.10;62.00;;;;;;5041176;28;876;-71
2023/03/12 03:58:37;;;;;;;;;;;17.10;62.00;;;;;;5040996;28;1030;-71
2023/03/12 04:01:03;;;;;;;;;;;17.10;62.00;;;;;;5041937;28;1612;-71
2023/03/12 04:03:28;;;;;;;;;;;17.10;62.00;;;;;;5037627;28;1246;-71
2023/03/12 04:05:55;;;;;;;;;;;17.10;62.00;;;;;;5039871;28;959;-70
2023/03/12 04:08:20;;;;;;;;;;;17.00;62.00;;;;;;5042076;28;928;-70
2023/03/12 04:10:46;;;;;;;;;;;17.00;61.90;;;;;;5042536;28;1918;-70
2023/03/12 04:13:11;;;;;;;;;;;17.10;62.00;;;;;;5041238;28;1326;-71
2023/03/12 04:15:37;;;;;;;;;;;17.10;62.00;;;;;;5040376;28;879;-71
2023/03/12 04:18:02;;;;;;;;;;;17.00;62.00;;;;;;5042240;28;808;-70
2023/03/12 04:20:27;;;;;;;;;;;17.10;62.00;;;;;;5039586;28;1070;-70
2023/03/12 04:22:53;;;;;;;;;;;17.10;62.00;;;;;;5038637;28;1598;-70
2023/03/12 04:25:18;;;;;;;;;;;17.10;62.00;;;;;;5041294;28;880;-70
2023/03/12 04:27:44;;;;;;;;;;;17.00;61.90;;;;;;5037440;28;856;-71
2023/03/12 04:30:10;;;;;;;;;;;17.00;62.00;;;;;;5038348;28;1967;-71
2023/03/12 04:32:35;;;;;;;;;;;17.10;62.00;;;;;;5042953;28;1220;-71
2023/03/12 04:35:00;;;;;;;;;;;17.00;61.90;;;;;;5043817;28;784;-70
2023/03/12 04:37:26;;;;;;;;;;;17.00;62.00;;;;;;5043036;28;1476;-71
2023/03/12 04:39:51;;;;;;;;;;;17.10;62.00;;;;;;5041602;28;899;-71
2023/03/12 04:42:17;;;;;;;;;;;17.00;61.90;;;;;;5038466;28;1276;-71
2023/03/12 04:44:42;;;;;;;;;;;17.00;62.00;;;;;;5039885;28;987;-71
2023/03/12 04:47:08;;;;;;;;;;;17.00;61.90;;;;;;5038952;28;781;-72
2023/03/12 04:49:33;;;;;;;;;;;17.10;62.00;;;;;;5038547;28;797;-71
2023/03/12 04:51:59;;;;;;;;;;;17.00;62.00;;;;;;5039757;28;1890;-71
2023/03/12 04:54:24;;;;;;;;;;;17.10;62.00;;;;;;5038883;28;1046;-70
2023/03/12 04:56:50;;;;;;;;;;;17.10;62.00;;;;;;5071369;28;859;-72
2023/03/12 04:59:15;;;;;;;;;;;17.10;62.00;;;;;;5073313;28;824;-70
2023/03/12 05:01:41;;;;;;;;;;;17.00;62.00;;;;;;5039780;28;1030;-70
2023/03/12 05:04:06;;;;;;;;;;;17.00;62.00;;;;;;5037593;28;1253;-70
2023/03/12 05:06:31;;;;;;;;;;;17.00;62.00;;;;;;5036712;28;1335;-70
2023/03/12 05:08:57;;;;;;;;;;;17.00;61.90;;;;;;5035966;28;877;-70
2023/03/12 05:11:22;;;;;;;;;;;17.00;61.90;;;;;;5039574;28;1898;-70
2023/03/12 05:13:48;;;;;;;;;;;17.10;61.90;;;;;;5036371;28;1258;-70
2023/03/12 05:16:13;;;;;;;;;;;17.10;61.90;;;;;;5038670;28;816;-70
2023/03/12 05:18:39;;;;;;;;;;;17.20;61.80;;;;;;5036178;28;889;-71
2023/03/12 05:21:06;;;;;;;;;;;17.10;61.60;;;;;;5037506;28;1069;-70
2023/03/12 05:23:31;;;;;;;;;;;17.20;61.60;;;;;;5039344;28;1320;-70
2023/03/12 05:25:57;;;;;;;;;;;17.20;61.50;;;;;;5047947;28;823;-70
2023/03/12 05:28:26;;;;;;;;;;;17.20;61.40;;;;;;5038598;28;1227;-70
2023/03/12 05:30:55;;;;;;;;;;;17.30;61.20;;;;;;5042106;28;1973;-70
2023/03/12 05:33:20;;;;;;;;;;;17.30;61.10;;;;;;5041361;28;1233;-70
2023/03/12 05:35:46;;;;;;;;;;;17.30;61.00;;;;;;5035322;28;864;-70
2023/03/12 05:38:11;;;;;;;;;;;17.40;61.00;;;;;;5045379;28;1438;-70
2023/03/12 05:40:37;;;;;;;;;;;17.40;60.80;;;;;;5039826;28;1084;-70
2023/03/12 05:43:02;;;;;;;;;;;17.40;60.80;;;;;;5036585;28;1264;-70
2023/03/12 05:45:28;;;;;;;;;;;17.40;60.70;;;;;;5037967;28;859;-70
2023/03/12 05:47:53;;;;;;;;;;;17.50;60.70;;;;;;5047235;28;892;-70
2023/03/12 05:50:18;;;;;;;;;;;17.50;60.60;;;;;;5042995;28;1902;-70
2023/03/12 05:52:44;;;;;;;;;;;17.50;60.60;;;;;;5057709;28;1687;-70
2023/03/12 05:55:09;;;;;;;;;;;17.50;60.50;;;;;;5036729;28;831;-70
2023/03/12 05:57:35;;;;;;;;;;;17.50;60.40;;;;;;5022281;28;1278;-70
2023/03/12 06:00:00;;;;;;;;;;;17.50;60.40;;;;;;5037392;28;867;-70
2023/03/12 06:02:26;;;;;;;;;;;17.50;60.30;;;;;;5035571;28;1347;-70
2023/03/12 06:04:51;;;;;;;;;;;17.50;61.00;;;;;;5037278;28;785;-70
2023/03/12 06:07:17;;;;;;;;;;;17.50;60.30;;;;;;5042100;28;847;-71
2023/03/12 06:09:42;;;;;;;;;;;17.60;60.30;;;;;;5036534;28;908;-71
2023/03/12 06:12:08;;;;;;;;;;;17.50;60.20;;;;;;5039784;28;1964;-71
2023/03/12 06:14:33;;;;;;;;;;;17.60;60.20;;;;;;5038358;28;875;-71
2023/03/12 06:16:59;;;;;;;;;;;17.60;60.30;;;;;;5038444;28;821;-71
2023/03/12 06:19:24;;;;;;;;;;;17.60;60.20;;;;;;5041051;28;863;-71
2023/03/12 06:21:49;;;;;;;;;;;17.60;60.20;;;;;;5036766;28;908;-71
2023/03/12 06:24:15;;;;;;;;;;;17.60;60.20;;;;;;5037662;28;856;-70
2023/03/12 06:26:41;;;;;;;;;;;17.60;60.20;;;;;;5039696;28;1032;-71
2023/03/12 06:29:06;;;;;;;;;;;17.60;60.20;;;;;;5041816;28;880;-71
2023/03/12 06:31:32;;;;;;;;;;;17.60;60.20;;;;;;5040422;28;2042;-71
2023/03/12 06:33:57;;;;;;;;;;;17.60;60.20;;;;;;5042049;28;1370;-71
2023/03/12 06:36:23;;;;;;;;;;;17.50;60.20;;;;;;5046248;28;837;-71
2023/03/12 06:38:49;;;;;;;;;;;17.60;60.20;;;;;;5045512;28;859;-71
2023/03/12 06:41:15;;;;;;;;;;;17.60;60.20;;;;;;5043524;28;1345;-72
2023/03/12 06:43:40;;;;;;;;;;;17.50;60.20;;;;;;5045926;28;1276;-72
2023/03/12 06:46:06;;;;;;;;;;;17.60;60.30;;;;;;5076617;28;943;-72
2023/03/12 06:48:32;;;;;;;;;;;17.50;60.20;;;;;;5074277;28;786;-71
2023/03/12 06:50:58;;;;;;;;;;;17.60;60.30;;;;;;5073826;28;1906;-72
2023/03/12 06:53:24;;;;;;;;;;;17.50;60.30;;;;;;5039433;28;1339;-71
2023/03/12 06:55:50;;;;;;;;;;;17.50;60.30;;;;;;5074112;28;825;-71
2023/03/12 06:58:15;;;;;;;;;;;17.50;60.30;;;;;;5072170;28;1156;-69
2023/03/12 07:00:41;;;;;;;;;;;17.50;60.30;;;;;;5041639;28;1895;-69
2023/03/12 07:03:06;;;;;;;;;;;17.50;60.30;;;;;;5039241;28;1288;-70
2023/03/12 07:05:32;;;;;;;;;;;17.50;60.40;;;;;;5042590;28;1464;-69
2023/03/12 07:07:57;;;;;;;;;;;17.50;60.40;;;;;;5040150;28;895;-70
2023/03/12 07:10:23;;;;;;;;;;;17.50;60.40;;;;;;5042982;28;1910;-70
2023/03/12 07:12:48;;;;;;;;;;;17.50;60.40;;;;;;5042672;28;1263;-70
2023/03/12 07:15:14;;;;;;;;;;;17.50;60.50;;;;;;5040374;28;866;-69
2023/03/12 07:17:39;;;;;;;;;;;17.50;60.50;;;;;;5042993;28;1054;-69
2023/03/12 07:20:05;;;;;;;;;;;17.50;60.50;;;;;;5042242;28;800;-69
2023/03/12 07:22:30;;;;;;;;;;;17.40;60.50;;;;;;5041647;28;1290;-69
2023/03/12 07:24:56;;;;;;;;;;;17.50;60.60;;;;;;5042163;28;886;-70
2023/03/12 07:27:21;;;;;;;;;;;17.50;60.60;;;;;;5041805;28;1166;-70
2023/03/12 07:29:47;;;;;;;;;;;17.50;60.60;;;;;;5039450;28;791;-70
2023/03/12 07:32:12;;;;;;;;;;;17.50;60.60;;;;;;5039213;28;1906;-70
2023/03/12 07:34:38;;;;;;;;;;;17.40;60.60;;;;;;5037464;28;2088;-70
2023/03/12 07:37:03;;;;;;;;;;;17.40;60.60;;;;;;5044585;28;1650;-69
2023/03/12 07:39:29;;;;;;;;;;;17.40;60.60;;;;;;5043291;28;998;-69
2023/03/12 07:41:55;;;;;;;;;;;17.40;60.70;;;;;;5041198;28;1386;-69
2023/03/12 07:44:20;;;;;;;;;;;17.40;60.70;;;;;;5042010;28;898;-68
2023/03/12 07:46:46;;;;;;;;;;;17.40;60.70;;;;;;5041301;28;830;-72
2023/03/12 07:49:11;;;;;;;;;;;17.40;60.70;;;;;;5040478;28;895;-71
2023/03/12 07:51:36;;;;;;;;;;;17.40;60.80;;;;;;5038855;28;1965;-71
2023/03/12 07:54:02;;;;;;;;;;;17.40;60.80;;;;;;5039119;28;1344;-72
2023/03/12 07:56:27;;;;;;;;;;;17.40;60.80;;;;;;5071038;28;860;-69
2023/03/12 07:58:53;;;;;;;;;;;17.40;60.80;;;;;;5037395;28;871;-71
2023/03/12 08:01:18;;;;;;;;;;;17.40;60.90;;;;;;5041135;28;1269;-71
2023/03/12 08:03:44;;;;;;;;;;;17.30;60.80;;;;;;5038254;28;1367;-71
2023/03/12 08:06:10;;;;;;;;;;;17.40;60.90;;;;;;5040170;28;812;-71
2023/03/12 08:08:37;;;;;;;;;;;17.40;60.90;;;;;;5037437;28;883;-71
2023/03/12 08:11:03;;;;;;;;;;;17.40;60.90;;;;;;5040091;28;1910;-71
2023/03/12 08:13:28;;;;;;;;;;;17.30;60.90;;;;;;5039994;28;1373;-72
2023/03/12 08:15:54;;;;;;;;;;;17.30;60.80;;;;;;5040200;28;869;-72
2023/03/12 08:18:19;;;;;;;;;;;17.30;60.90;;;;;;5040439;28;831;-71
2023/03/12 08:20:44;;;;;;;;;;;17.30;60.90;;;;;;5058355;28;1329;-71
2023/03/12 08:23:10;;;;;;;;;;;17.30;60.90;;;;;;5038005;28;1327;-71
2023/03/12 08:25:36;;;;;;;;;;;17.30;60.90;;;;;;5038450;28;1046;-72
2023/03/12 08:28:04;;;;;;;;;;;17.30;60.90;;;;;;5072425;28;2154;-71
2023/03/12 08:30:30;;;;;;;;;;;17.30;60.90;;;;;;5072982;28;1965;-71
2023/03/12 08:32:56;;;;;;;;;;;17.30;60.90;;;;;;5041464;28;1649;-72
2023/03/12 08:35:21;;;;;;;;;;;17.30;60.90;;;;;;5036028;28;877;-71
2023/03/12 08:37:46;;;;;;;;;;;17.30;61.00;;;;;;5043012;28;2417;-72
2023/03/12 08:40:12;;;;;;;;;;;17.30;61.00;;;;;;5047609;28;867;-72
2023/03/12 08:42:41;;;;;;;;;;;17.30;61.00;;;;;;5041516;28;1312;-71
2023/03/12 08:45:07;;;;;;;;;;;17.30;61.00;;;;;;5040112;28;1453;-72
2023/03/12 08:47:32;;;;;;;;;;;17.30;61.00;;;;;;5041770;28;1365;-72
2023/03/12 08:49:57;;;;;;;;;;;17.30;61.00;;;;;;5038877;28;1906;-72
2023/03/12 08:52:23;;;;;;;;;;;17.30;61.00;;;;;;5040735;28;1266;-72
2023/03/12 08:54:49;;;;;;;;;;;17.30;61.00;;;;;;5038308;28;917;-72
2023/03/12 08:57:15;;;;;;;;;;;17.30;61.10;;;;;;5040021;28;777;-72
2023/03/12 08:59:40;;;;;;;;;;;17.30;61.10;;;;;;5039254;28;931;-72
2023/03/12 09:02:06;;;;;;;;;;;17.30;61.00;;;;;;5037192;28;1260;-72
2023/03/12 09:04:31;;;;;;;;;;;17.30;61.10;;;;;;5040604;28;780;-71
2023/03/12 09:06:56;;;;;;;;;;;17.30;61.10;;;;;;5039062;28;955;-72
2023/03/12 09:09:22;;;;;;;;;;;17.30;61.10;;;;;;5041529;28;1222;-72
2023/03/12 09:11:47;;;;;;;;;;;17.30;61.10;;;;;;5039967;28;1906;-72
2023/03/12 09:14:13;;;;;;;;;;;17.30;61.10;;;;;;5037668;28;1288;-72
2023/03/12 09:16:38;;;;;;;;;;;17.30;61.10;;;;;;5036902;28;1533;-72
2023/03/12 09:19:04;;;;;;;;;;;17.30;61.00;;;;;;5037001;28;880;-72
2023/03/12 09:21:29;;;;;;;;;;;17.30;61.00;;;;;;5039919;28;939;-72
2023/03/12 09:23:55;;;;;;;;;;;17.30;61.00;;;;;;5039548;28;1237;-72
2023/03/12 09:26:20;;;;;;;;;;;17.30;60.90;;;;;;5036859;28;859;-72
2023/03/12 09:28:46;;;;;;;;;;;17.30;60.90;;;;;;5044985;28;1356;-71
2023/03/12 09:31:11;;;;;;;;;;;17.40;60.90;;;;;;5044004;28;2273;-72
2023/03/12 09:33:37;;;;;;;;;;;17.40;60.90;;;;;;5038209;28;1256;-72
2023/03/12 09:36:03;;;;;;;;;;;17.40;60.80;;;;;;5053403;28;1288;-72
2023/03/12 09:38:30;;;;;;;;;;;17.40;60.80;;;;;;5039788;28;1369;-72
2023/03/12 09:40:56;;;;;;;;;;;17.40;60.70;;;;;;5067941;28;1642;-69
2023/03/12 09:43:26;;;;;;;;;;;17.40;60.70;;;;;;5070414;28;1491;-70
2023/03/12 09:45:51;;;;;;;;;;;17.40;60.70;;;;;;5038767;28;1629;-70
2023/03/12 09:48:33;;;;;;;;;;;17.40;60.60;;;;;;5041012;28;1701;-70
2023/03/12 09:51:00;;;;;;;;;;;17.40;60.60;;;;;;5036683;28;2365;-69
2023/03/12 09:53:26;;;;;;;;;;;17.50;60.70;;;;;;5069535;28;1295;-70
2023/03/12 09:55:52;;;;;;;;;;;17.40;60.60;;;;;;5036586;28;957;-69
2023/03/12 09:58:21;;;;;;;;;;;17.50;60.60;;;;;;5040070;28;1027;-70
2023/03/12 10:00:46;;;;;;;;;;;17.40;60.60;;;;;;5037204;28;977;-70
2023/03/12 10:03:12;;;;;;;;;;;17.50;60.60;;;;;;5040076;28;1244;-70
2023/03/12 10:05:40;;;;;;;;;;;17.50;60.60;;;;;;5042300;28;903;-69
2023/03/12 10:08:09;;;;;;;;;;;17.40;60.50;;;;;;5044439;28;983;-70
2023/03/12 10:10:34;;;;;;;;;;;17.50;60.60;;;;;;5042174;28;1914;-69
2023/03/12 10:13:04;;;;;;;;;;;17.50;60.50;;;;;;5044417;28;1291;-69
2023/03/12 10:15:38;;;;;;;;;;;17.50;60.60;;;;;;5073825;28;986;-69
2023/03/12 10:18:04;;;;;;;;;;;17.50;60.50;;;;;;5043323;28;800;-69
2023/03/12 10:20:39;;;;;;;;;;;17.50;60.70;;;;;;5043115;28;809;-69
2023/03/12 10:23:09;;;;;;;;;;;17.50;60.50;;;;;;5042630;28;1818;-69
2023/03/12 10:25:38;;;;;;;;;;;17.50;60.50;;;;;;5034134;28;1144;-69
2023/03/12 10:28:14;;;;;;;;;;;17.50;60.40;;;;;;5040980;28;900;-69
2023/03/12 10:30:40;;;;;;;;;;;17.50;60.40;;;;;;5042145;28;1902;-69
2023/03/12 10:33:05;;;;;;;;;;;17.50;60.40;;;;;;5041000;28;1362;-69
2023/03/12 10:35:31;;;;;;;;;;;17.50;60.40;;;;;;5040083;28;829;-69
2023/03/12 10:37:57;;;;;;;;;;;17.50;60.40;;;;;;5045825;28;1415;-69
2023/03/12 10:40:23;;;;;;;;;;;17.50;60.40;;;;;;5044897;28;860;-69
2023/03/12 10:42:49;;;;;;;;;;;17.50;60.40;;;;;;5043015;28;1418;-69
2023/03/12 10:45:33;;;;;;;;;;;17.50;60.40;;;;;;5042198;28;779;-69
2023/03/12 10:48:03;;;;;;;;;;;17.50;60.40;;;;;;5046160;28;868;-69
2023/03/12 10:50:29;;;;;;;;;;;17.50;60.40;;;;;;5041021;28;1961;-68
2023/03/12 10:53:12;;;;;;;;;;;17.50;60.40;;;;;;5041411;28;1328;-68
2023/03/12 10:55:38;;;;;;;;;;;17.50;60.40;;;;;;5038423;28;872;-68
2023/03/12 10:58:04;;;;;;;;;;;17.50;60.40;;;;;;5037838;28;923;-68
2023/03/12 11:00:31;;;;;;;;;;;17.50;60.40;;;;;;5039405;28;805;-68
2023/03/12 11:02:57;;;;;;;;;;;17.50;60.40;;;;;;5038691;28;1361;-68
2023/03/12 11:05:43;;;;;;;;;;;17.50;60.40;;;;;;5041699;28;851;-68
2023/03/12 11:08:17;;;;;;;;;;;17.50;60.40;;;;;;5039408;28;1201;-68
2023/03/12 11:10:43;;;;;;;;;;;17.50;60.40;;;;;;5039831;28;1910;-69
2023/03/12 11:13:20;;;;;;;;;;;17.50;60.40;;;;;;5039339;28;1275;-68
2023/03/12 11:15:46;;;;;;;;;;;17.50;60.40;;;;;;5071982;28;2028;-68
2023/03/12 11:18:18;;;;;;;;;;;17.50;60.40;;;;;;5042571;28;1352;-68
2023/03/12 11:20:44;;;;;;;;;;;17.50;60.40;;;;;;5041911;28;2079;-68
2023/03/12 11:23:13;;;;;;;;;;;17.50;60.40;;;;;;5040297;28;1291;-69
2023/03/12 11:25:39;;;;;;;;;;;17.50;60.40;;;;;;5026873;28;1386;-69
2023/03/12 11:28:04;;;;;;;;;;;17.50;60.40;;;;;;5075564;28;1014;-69
2023/03/12 11:30:37;;;;;;;;;;;17.50;60.40;;;;;;5072022;28;1957;-68
2023/03/12 11:33:03;;;;;;;;;;;17.50;60.40;;;;;;5039830;28;1341;-69
2023/03/12 11:35:51;;;;;;;;;;;17.50;60.40;;;;;;5042976;28;867;-69
2023/03/12 11:38:20;;;;;;;;;;;17.50;60.30;;;;;;5025743;28;1539;-69
2023/03/12 11:40:52;;;;;;;;;;;17.60;60.40;;;;;;5040939;28;915;-69
2023/03/12 11:43:17;;;;;;;;;;;17.60;60.40;;;;;;5041075;28;1267;-68
2023/03/12 11:46:01;;;;;;;;;;;17.50;60.30;;;;;;5039848;28;875;-69
2023/03/12 11:48:30;;;;;;;;;;;17.50;60.30;;;;;;5041809;28;800;-69
2023/03/12 11:51:01;;;;;;;;;;;17.50;60.30;;;;;;5042095;28;1906;-69
2023/03/12 11:53:38;;;;;;;;;;;17.50;60.30;;;;;;5053611;28;1723;-69
2023/03/12 11:56:04;;;;;;;;;;;17.50;60.30;;;;;;5048403;28;836;-68
2023/03/12 11:58:44;;;;;;;;;;;17.50;60.40;;;;;;5041358;28;920;-69
2023/03/12 12:01:18;;;;;;;;;;;17.50;60.40;;;;;;5036464;28;863;-69
2023/03/12 12:03:50;;;;;;;;;;;17.50;60.40;;;;;;5046189;28;1347;-69
2023/03/12 12:06:34;;;;;;;;;;;17.50;60.40;;;;;;5034828;28;930;-69
2023/03/12 12:08:59;;;;;;;;;;;17.50;60.40;;;;;;5039907;28;903;-69
2023/03/12 12:11:27;;;;;;;;;;;17.50;60.50;;;;;;5039132;28;1913;-69
2023/03/12 12:13:59;;;;;;;;;;;17.50;60.50;;;;;;5070912;28;1271;-69
2023/03/12 12:16:28;;;;;;;;;;;17.50;60.50;;;;;;5045199;28;793;-69
2023/03/12 12:19:17;;;;;;;;;;;17.50;60.50;;;;;;5050401;28;897;-69
2023/03/12 12:21:43;;;;;;;;;;;17.50;60.50;;;;;;5037028;28;1273;-69
2023/03/12 12:24:14;;;;;;;;;;;17.50;60.50;;;;;;5043454;28;1252;-69
2023/03/12 12:26:39;;;;;;;;;;;17.50;60.60;;;;;;5041016;28;940;-69
2023/03/12 12:29:14;;;;;;;;;;;17.50;60.60;;;;;;5040280;28;983;-69
2023/03/12 12:31:51;;;;;;;;;;;17.50;60.60;;;;;;5073823;28;1955;-69
2023/03/12 12:34:23;;;;;;;;;;;17.50;60.60;;;;;;5072437;28;1372;-69
2023/03/12 12:36:53;;;;;;;;;;;17.50;60.60;;;;;;5041269;28;1368;-71
2023/03/12 12:39:34;;;;;;;;;;;17.50;60.60;;;;;;5042962;28;883;-69
2023/03/12 12:42:03;;;;;;;;;;;17.50;60.60;;;;;;5041958;28;1289;-70
2023/03/12 12:44:31;;;;;;;;;;;17.40;60.60;;;;;;5040650;28;1022;-69
2023/03/12 12:47:01;;;;;;;;;;;17.50;60.70;;;;;;5070139;28;797;-69
2023/03/12 12:49:35;;;;;;;;;;;17.50;60.70;;;;;;5061196;28;1147;-69
2023/03/12 12:52:02;;;;;;;;;;;17.40;60.60;;;;;;5042759;28;1963;-69
2023/03/12 12:54:34;;;;;;;;;;;17.50;60.70;;;;;;5076589;28;987;-69
2023/03/12 12:57:02;;;;;;;;;;;17.40;60.60;;;;;;5039401;28;968;-69
2023/03/12 12:59:49;;;;;;;;;;;17.40;60.60;;;;;;5074937;28;832;-69
2023/03/12 13:02:21;;;;;;;;;;;17.40;60.60;;;;;;5041677;28;1275;-69
2023/03/12 13:04:47;;;;;;;;;;;17.50;60.70;;;;;;5037904;28;848;-69
2023/03/12 13:07:12;;;;;;;;;;;17.40;60.60;;;;;;5039209;28;998;-68
2023/03/12 13:09:40;;;;;;;;;;;17.50;60.70;;;;;;5035725;28;982;-69
2023/03/12 13:12:07;;;;;;;;;;;17.40;60.60;;;;;;5047947;28;1983;-69
2023/03/12 13:14:34;;;;;;;;;;;17.50;60.70;;;;;;5037743;28;1936;-68
2023/03/12 13:17:05;;;;;;;;;;;17.50;60.70;;;;;;5075858;28;1884;-69
2023/03/12 13:19:31;;;;;;;;;;;17.50;60.70;;;;;;5044460;28;1003;-69
2023/03/12 13:22:02;;;;;;;;;;;17.50;60.60;;;;;;5041279;28;1455;-68
2023/03/12 13:24:38;;;;;;;;;;;17.50;60.70;;;;;;5039535;28;1930;-69
2023/03/12 13:27:23;;;;;;;;;;;17.50;60.70;;;;;;5049687;28;1489;-69
2023/03/12 13:29:55;;;;;;;;;;;17.50;60.60;;;;;;5037394;28;799;-69
2023/03/12 13:32:37;;;;;;;;;;;17.40;60.50;;;;;;5068495;28;1890;-69
2023/03/12 13:35:14;;;;;;;;;;;17.40;60.50;;;;;;5041005;28;812;-69
2023/03/12 13:37:46;;;;;;;;;;;17.50;60.50;;;;;;5038902;28;849;-69
2023/03/12 13:40:29;;;;;;;;;;;17.50;60.50;;;;;;5039598;28;820;-69
2023/03/12 13:43:07;;;;;;;;;;;17.50;60.50;;;;;;5042235;28;1334;-69
2023/03/12 13:45:34;;;;;;;;;;;17.50;60.40;;;;;;5055757;28;1399;-69
2023/03/12 13:48:00;;;;;;;;;;;17.50;60.40;;;;;;5036613;28;849;-69
2023/03/12 13:50:26;;;;;;;;;;;17.50;60.40;;;;;;5036858;28;1969;-69
2023/03/12 13:53:02;;;;;;;;;;;17.50;60.30;;;;;;5072251;28;1338;-68
2023/03/12 13:55:35;;;;;;;;;;;17.60;60.40;;;;;;5070817;28;884;-69
2023/03/12 13:58:15;;;;;;;;;;;17.60;60.40;;;;;;5049118;28;876;-69
2023/03/12 14:00:52;;;;;;;;;;;17.50;60.30;;;;;;5038505;28;881;-69
2023/03/12 14:03:23;;;;;;;;;;;17.50;60.30;;;;;;5029473;28;1261;-68
2023/03/12 14:05:56;;;;;;;;;;;17.50;60.30;;;;;;5037616;28;922;-69
2023/03/12 14:08:21;;;;;;;;;;;17.50;60.30;;;;;;5045243;28;876;-69
2023/03/12 14:10:51;;;;;;;;;;;17.50;60.30;;;;;;5037903;28;1917;-69
2023/03/12 14:13:29;;;;;;;;;;;17.50;60.30;;;;;;5060184;28;1286;-68
2023/03/12 14:16:20;;;;;;;;;;;17.50;60.40;;;;;;5068672;28;899;-69
2023/03/12 14:18:46;;;;;;;;;;;17.50;60.40;;;;;;5043230;28;1315;-69
2023/03/12 14:21:15;;;;;;;;;;;17.50;60.40;;;;;;5046332;28;808;-68
2023/03/12 14:23:58;;;;;;;;;;;17.50;60.50;;;;;;5069717;28;2165;-69
2023/03/12 14:26:26;;;;;;;;;;;17.50;60.50;;;;;;5047623;28;1263;-69
2023/03/12 14:29:17;;;;;;;;;;;17.50;61.20;;;;;;5042456;28;868;-69
2023/03/12 14:31:43;;;;;;;;;;;17.50;60.50;;;;;;5036268;28;1895;-70
2023/03/12 14:34:08;;;;;;;;;;;17.50;60.50;;;;;;5038113;28;1155;-69
2023/03/12 14:36:38;;;;;;;;;;;17.50;60.60;;;;;;5040748;28;1084;-69
2023/03/12 14:39:23;;;;;;;;;;;17.50;60.60;;;;;;5042909;28;903;-69